sensor_id;sensor_type;location;lat;lon;timestamp;P1;P2;P0
64114;PMS5003;62188;35.640;139.748;2023-04-15T00:00:13;7;6;
64114;PMS5003;62188;35.640;139.748;2023-04-15T00:02:38;6;5;
64114;PMS5003;62188;35.640;139.748;2023-04-15T00:05:04;9;5;
64114;PMS5003;62188;35.640;139.748;2023-04-15T00:07:30;6;5;
64114;PMS5003;62188;35.640;139.748;2023-04-15T00:09:55;7;6;
64114;PMS5003;62188;35.640;139.748;2023-04-15T00:12:20;6;6;
64114;PMS5003;62188;35.640;139.748;2023-04-15T00:14:46;7;6;
64114;PMS5003;62188;35.640;139.748;2023-04-15T00:17:11;9;7;
64114;PMS5003;62188;35.640;139.748;2023-04-15T00:19:37;8;8;
64114;PMS5003;62188;35.640;139.748;2023-04-15T00:22:02;8;7;
64114;PMS5003;62188;35.640;139.748;2023-04-15T00:24:28;8;8;
64114;PMS5003;62188;35.640;139.748;2023-04-15T00:26:53;8;7;
64114;PMS5003;62188;35.640;139.748;2023-04-15T00:29:19;7;7;
64114;PMS5003;62188;35.640;139.748;2023-04-15T00:31:44;8;7;
64114;PMS5003;62188;35.640;139.748;2023-04-15T00:34:10;10;10;
64114;PMS5003;62188;35.640;139.748;2023-04-15T00:36:35;11;10;
64114;PMS5003;62188;35.640;139.748;2023-04-15T00:39:01;12;11;
64114;PMS5003;62188;35.640;139.748;2023-04-15T00:41:26;13;12;
64114;PMS5003;62188;35.640;139.748;2023-04-15T00:43:52;10;9;
64114;PMS5003;62188;35.640;139.748;2023-04-15T00:46:17;11;10;
64114;PMS5003;62188;35.640;139.748;2023-04-15T00:48:43;10;9;
64114;PMS5003;62188;35.640;139.748;2023-04-15T00:51:08;12;11;
64114;PMS5003;62188;35.640;139.748;2023-04-15T00:53:34;12;11;
64114;PMS5003;62188;35.640;139.748;2023-04-15T00:55:59;11;9;
64114;PMS5003;62188;35.640;139.748;2023-04-15T00:58:25;9;9;
64114;PMS5003;62188;35.640;139.748;2023-04-15T01:00:50;11;9;
64114;PMS5003;62188;35.640;139.748;2023-04-15T01:03:16;9;9;
64114;PMS5003;62188;35.640;139.748;2023-04-15T01:05:41;9;8;
64114;PMS5003;62188;35.640;139.748;2023-04-15T01:08:06;13;11;
64114;PMS5003;62188;35.640;139.748;2023-04-15T01:10:32;10;9;
64114;PMS5003;62188;35.640;139.748;2023-04-15T01:12:58;9;9;
64114;PMS5003;62188;35.640;139.748;2023-04-15T01:15:23;13;10;
64114;PMS5003;62188;35.640;139.748;2023-04-15T01:17:49;13;11;
64114;PMS5003;62188;35.640;139.748;2023-04-15T01:20:14;14;9;
64114;PMS5003;62188;35.640;139.748;2023-04-15T01:22:39;12;11;
64114;PMS5003;62188;35.640;139.748;2023-04-15T01:25:05;10;10;
64114;PMS5003;62188;35.640;139.748;2023-04-15T01:27:31;12;11;
64114;PMS5003;62188;35.640;139.748;2023-04-15T01:29:56;11;11;
64114;PMS5003;62188;35.640;139.748;2023-04-15T01:32:21;13;12;
64114;PMS5003;62188;35.640;139.748;2023-04-15T01:34:46;13;13;
64114;PMS5003;62188;35.640;139.748;2023-04-15T01:37:12;10;10;
64114;PMS5003;62188;35.640;139.748;2023-04-15T01:39:38;14;11;
64114;PMS5003;62188;35.640;139.748;2023-04-15T01:42:03;13;12;
64114;PMS5003;62188;35.640;139.748;2023-04-15T01:44:29;11;11;
64114;PMS5003;62188;35.640;139.748;2023-04-15T01:46:54;14;12;
64114;PMS5003;62188;35.640;139.748;2023-04-15T01:49:20;12;12;
64114;PMS5003;62188;35.640;139.748;2023-04-15T01:51:45;14;12;
64114;PMS5003;62188;35.640;139.748;2023-04-15T01:54:10;14;13;
64114;PMS5003;62188;35.640;139.748;2023-04-15T01:56:36;13;13;
64114;PMS5003;62188;35.640;139.748;2023-04-15T01:59:02;18;16;
64114;PMS5003;62188;35.640;139.748;2023-04-15T02:01:27;22;20;
64114;PMS5003;62188;35.640;139.748;2023-04-15T02:03:52;21;18;
64114;PMS5003;62188;35.640;139.748;2023-04-15T02:06:18;19;16;
64114;PMS5003;62188;35.640;139.748;2023-04-15T02:08:43;18;15;
64114;PMS5003;62188;35.640;139.748;2023-04-15T02:11:09;15;13;
64114;PMS5003;62188;35.640;139.748;2023-04-15T02:13:34;14;14;
64114;PMS5003;62188;35.640;139.748;2023-04-15T02:15:59;25;20;
64114;PMS5003;62188;35.640;139.748;2023-04-15T02:18:25;18;18;
64114;PMS5003;62188;35.640;139.748;2023-04-15T02:20:51;20;19;
64114;PMS5003;62188;35.640;139.748;2023-04-15T02:23:16;17;16;
64114;PMS5003;62188;35.640;139.748;2023-04-15T02:25:42;18;16;
64114;PMS5003;62188;35.640;139.748;2023-04-15T02:28:07;16;15;
64114;PMS5003;62188;35.640;139.748;2023-04-15T02:30:33;24;20;
64114;PMS5003;62188;35.640;139.748;2023-04-15T02:32:58;26;24;
64114;PMS5003;62188;35.640;139.748;2023-04-15T02:35:24;23;20;
64114;PMS5003;62188;35.640;139.748;2023-04-15T02:37:49;24;23;
64114;PMS5003;62188;35.640;139.748;2023-04-15T02:40:15;23;20;
64114;PMS5003;62188;35.640;139.748;2023-04-15T02:42:40;23;22;
64114;PMS5003;62188;35.640;139.748;2023-04-15T02:45:06;25;25;
64114;PMS5003;62188;35.640;139.748;2023-04-15T02:47:31;24;24;
64114;PMS5003;62188;35.640;139.748;2023-04-15T02:49:57;25;24;
64114;PMS5003;62188;35.640;139.748;2023-04-15T02:52:22;27;24;
64114;PMS5003;62188;35.640;139.748;2023-04-15T02:54:47;23;22;
64114;PMS5003;62188;35.640;139.748;2023-04-15T02:57:13;27;24;
64114;PMS5003;62188;35.640;139.748;2023-04-15T02:59:38;22;20;
64114;PMS5003;62188;35.640;139.748;2023-04-15T03:02:04;24;22;
64114;PMS5003;62188;35.640;139.748;2023-04-15T03:04:29;21;20;
64114;PMS5003;62188;35.640;139.748;2023-04-15T03:06:54;23;20;
64114;PMS5003;62188;35.640;139.748;2023-04-15T03:09:20;22;22;
64114;PMS5003;62188;35.640;139.748;2023-04-15T03:11:46;23;22;
64114;PMS5003;62188;35.640;139.748;2023-04-15T03:14:11;21;21;
64114;PMS5003;62188;35.640;139.748;2023-04-15T03:16:36;22;21;
64114;PMS5003;62188;35.640;139.748;2023-04-15T03:19:02;21;19;
64114;PMS5003;62188;35.640;139.748;2023-04-15T03:21:27;18;17;
64114;PMS5003;62188;35.640;139.748;2023-04-15T03:23:53;20;17;
64114;PMS5003;62188;35.640;139.748;2023-04-15T03:26:25;17;17;
64114;PMS5003;62188;35.640;139.748;2023-04-15T03:28:44;13;13;
64114;PMS5003;62188;35.640;139.748;2023-04-15T03:31:09;16;16;
64114;PMS5003;62188;35.640;139.748;2023-04-15T03:33:35;12;12;
64114;PMS5003;62188;35.640;139.748;2023-04-15T03:36:00;12;11;
64114;PMS5003;62188;35.640;139.748;2023-04-15T03:38:26;15;14;
64114;PMS5003;62188;35.640;139.748;2023-04-15T03:40:51;12;12;
64114;PMS5003;62188;35.640;139.748;2023-04-15T03:43:17;12;11;
64114;PMS5003;62188;35.640;139.748;2023-04-15T03:45:42;11;10;
64114;PMS5003;62188;35.640;139.748;2023-04-15T03:48:08;10;10;
64114;PMS5003;62188;35.640;139.748;2023-04-15T03:50:33;11;11;
64114;PMS5003;62188;35.640;139.748;2023-04-15T03:52:59;14;13;
64114;PMS5003;62188;35.640;139.748;2023-04-15T03:55:24;12;12;
64114;PMS5003;62188;35.640;139.748;2023-04-15T03:57:50;12;11;
64114;PMS5003;62188;35.640;139.748;2023-04-15T04:00:15;10;9;
64114;PMS5003;62188;35.640;139.748;2023-04-15T04:02:41;10;8;
64114;PMS5003;62188;35.640;139.748;2023-04-15T04:05:06;8;7;
64114;PMS5003;62188;35.640;139.748;2023-04-15T04:07:32;10;10;
64114;PMS5003;62188;35.640;139.748;2023-04-15T04:09:57;10;10;
64114;PMS5003;62188;35.640;139.748;2023-04-15T04:12:23;8;8;
64114;PMS5003;62188;35.640;139.748;2023-04-15T04:14:49;12;11;
64114;PMS5003;62188;35.640;139.748;2023-04-15T04:17:15;13;10;
64114;PMS5003;62188;35.640;139.748;2023-04-15T04:19:40;12;9;
64114;PMS5003;62188;35.640;139.748;2023-04-15T04:22:14;11;10;
64114;PMS5003;62188;35.640;139.748;2023-04-15T04:24:31;16;14;
64114;PMS5003;62188;35.640;139.748;2023-04-15T04:26:57;11;10;
64114;PMS5003;62188;35.640;139.748;2023-04-15T04:29:22;10;10;
64114;PMS5003;62188;35.640;139.748;2023-04-15T04:31:48;13;11;
64114;PMS5003;62188;35.640;139.748;2023-04-15T04:34:13;11;10;
64114;PMS5003;62188;35.640;139.748;2023-04-15T04:36:44;16;15;
64114;PMS5003;62188;35.640;139.748;2023-04-15T04:39:04;11;10;
64114;PMS5003;62188;35.640;139.748;2023-04-15T04:41:30;16;14;
64114;PMS5003;62188;35.640;139.748;2023-04-15T04:43:55;17;13;
64114;PMS5003;62188;35.640;139.748;2023-04-15T04:46:21;16;15;
64114;PMS5003;62188;35.640;139.748;2023-04-15T04:48:46;13;12;
64114;PMS5003;62188;35.640;139.748;2023-04-15T04:51:12;15;14;
64114;PMS5003;62188;35.640;139.748;2023-04-15T04:53:37;14;14;
64114;PMS5003;62188;35.640;139.748;2023-04-15T04:56:03;14;13;
64114;PMS5003;62188;35.640;139.748;2023-04-15T04:58:29;14;13;
64114;PMS5003;62188;35.640;139.748;2023-04-15T05:00:54;13;12;
64114;PMS5003;62188;35.640;139.748;2023-04-15T05:03:19;14;13;
64114;PMS5003;62188;35.640;139.748;2023-04-15T05:05:44;19;19;
64114;PMS5003;62188;35.640;139.748;2023-04-15T05:08:10;13;13;
64114;PMS5003;62188;35.640;139.748;2023-04-15T05:10:36;18;17;
64114;PMS5003;62188;35.640;139.748;2023-04-15T05:13:01;14;14;
64114;PMS5003;62188;35.640;139.748;2023-04-15T05:15:26;12;12;
64114;PMS5003;62188;35.640;139.748;2023-04-15T05:17:52;12;11;
64114;PMS5003;62188;35.640;139.748;2023-04-15T05:20:17;12;12;
64114;PMS5003;62188;35.640;139.748;2023-04-15T05:22:43;14;13;
64114;PMS5003;62188;35.640;139.748;2023-04-15T05:25:08;13;13;
64114;PMS5003;62188;35.640;139.748;2023-04-15T05:27:34;14;12;
64114;PMS5003;62188;35.640;139.748;2023-04-15T05:29:59;13;11;
64114;PMS5003;62188;35.640;139.748;2023-04-15T05:32:25;12;12;
64114;PMS5003;62188;35.640;139.748;2023-04-15T05:34:50;16;13;
64114;PMS5003;62188;35.640;139.748;2023-04-15T05:37:16;10;9;
64114;PMS5003;62188;35.640;139.748;2023-04-15T05:39:41;10;10;
64114;PMS5003;62188;35.640;139.748;2023-04-15T05:42:06;11;11;
64114;PMS5003;62188;35.640;139.748;2023-04-15T05:44:32;12;8;
64114;PMS5003;62188;35.640;139.748;2023-04-15T05:46:57;10;9;
64114;PMS5003;62188;35.640;139.748;2023-04-15T05:49:23;11;10;
64114;PMS5003;62188;35.640;139.748;2023-04-15T05:51:49;11;11;
64114;PMS5003;62188;35.640;139.748;2023-04-15T05:54:14;10;9;
64114;PMS5003;62188;35.640;139.748;2023-04-15T05:56:39;9;7;
64114;PMS5003;62188;35.640;139.748;2023-04-15T05:59:05;8;7;
64114;PMS5003;62188;35.640;139.748;2023-04-15T06:01:32;9;8;
64114;PMS5003;62188;35.640;139.748;2023-04-15T06:03:56;9;8;
64114;PMS5003;62188;35.640;139.748;2023-04-15T06:06:22;8;7;
64114;PMS5003;62188;35.640;139.748;2023-04-15T06:08:47;8;7;
64114;PMS5003;62188;35.640;139.748;2023-04-15T06:11:13;8;7;
64114;PMS5003;62188;35.640;139.748;2023-04-15T06:13:38;6;6;
64114;PMS5003;62188;35.640;139.748;2023-04-15T06:16:04;10;9;
64114;PMS5003;62188;35.640;139.748;2023-04-15T06:18:29;10;9;
64114;PMS5003;62188;35.640;139.748;2023-04-15T06:20:55;9;8;
64114;PMS5003;62188;35.640;139.748;2023-04-15T06:23:20;8;8;
64114;PMS5003;62188;35.640;139.748;2023-04-15T06:25:46;8;8;
64114;PMS5003;62188;35.640;139.748;2023-04-15T06:28:11;6;6;
64114;PMS5003;62188;35.640;139.748;2023-04-15T06:30:37;6;6;
64114;PMS5003;62188;35.640;139.748;2023-04-15T06:33:02;6;6;
64114;PMS5003;62188;35.640;139.748;2023-04-15T06:35:28;7;7;
64114;PMS5003;62188;35.640;139.748;2023-04-15T06:37:53;7;7;
64114;PMS5003;62188;35.640;139.748;2023-04-15T06:40:19;8;7;
64114;PMS5003;62188;35.640;139.748;2023-04-15T06:42:44;5;5;
64114;PMS5003;62188;35.640;139.748;2023-04-15T06:45:11;7;7;
64114;PMS5003;62188;35.640;139.748;2023-04-15T06:47:36;9;8;
64114;PMS5003;62188;35.640;139.748;2023-04-15T06:50:01;10;7;
64114;PMS5003;62188;35.640;139.748;2023-04-15T06:52:26;9;8;
64114;PMS5003;62188;35.640;139.748;2023-04-15T06:54:52;9;9;
64114;PMS5003;62188;35.640;139.748;2023-04-15T06:57:17;8;8;
64114;PMS5003;62188;35.640;139.748;2023-04-15T06:59:43;8;8;
64114;PMS5003;62188;35.640;139.748;2023-04-15T07:02:08;8;8;
64114;PMS5003;62188;35.640;139.748;2023-04-15T07:04:40;9;9;
64114;PMS5003;62188;35.640;139.748;2023-04-15T07:06:59;9;9;
64114;PMS5003;62188;35.640;139.748;2023-04-15T07:09:25;7;7;
64114;PMS5003;62188;35.640;139.748;2023-04-15T07:11:50;8;8;
64114;PMS5003;62188;35.640;139.748;2023-04-15T07:14:16;7;7;
64114;PMS5003;62188;35.640;139.748;2023-04-15T07:16:41;7;7;
64114;PMS5003;62188;35.640;139.748;2023-04-15T07:19:07;6;6;
64114;PMS5003;62188;35.640;139.748;2023-04-15T07:21:32;7;7;
64114;PMS5003;62188;35.640;139.748;2023-04-15T07:23:58;8;8;
64114;PMS5003;62188;35.640;139.748;2023-04-15T07:26:24;7;7;
64114;PMS5003;62188;35.640;139.748;2023-04-15T07:28:49;6;6;
64114;PMS5003;62188;35.640;139.748;2023-04-15T07:31:14;6;6;
64114;PMS5003;62188;35.640;139.748;2023-04-15T07:33:40;7;7;
64114;PMS5003;62188;35.640;139.748;2023-04-15T07:36:06;9;8;
64114;PMS5003;62188;35.640;139.748;2023-04-15T07:38:31;10;9;
64114;PMS5003;62188;35.640;139.748;2023-04-15T07:40:56;9;8;
64114;PMS5003;62188;35.640;139.748;2023-04-15T07:43:22;8;6;
64114;PMS5003;62188;35.640;139.748;2023-04-15T07:45:47;8;8;
64114;PMS5003;62188;35.640;139.748;2023-04-15T07:48:13;11;10;
64114;PMS5003;62188;35.640;139.748;2023-04-15T07:50:38;7;7;
64114;PMS5003;62188;35.640;139.748;2023-04-15T07:53:04;8;8;
64114;PMS5003;62188;35.640;139.748;2023-04-15T07:55:29;6;6;
64114;PMS5003;62188;35.640;139.748;2023-04-15T07:57:55;7;7;
64114;PMS5003;62188;35.640;139.748;2023-04-15T08:00:21;7;5;
64114;PMS5003;62188;35.640;139.748;2023-04-15T08:02:46;6;5;
64114;PMS5003;62188;35.640;139.748;2023-04-15T08:05:11;6;6;
64114;PMS5003;62188;35.640;139.748;2023-04-15T08:07:37;7;7;
64114;PMS5003;62188;35.640;139.748;2023-04-15T08:10:03;8;8;
64114;PMS5003;62188;35.640;139.748;2023-04-15T08:12:28;6;6;
64114;PMS5003;62188;35.640;139.748;2023-04-15T08:14:54;7;6;
64114;PMS5003;62188;35.640;139.748;2023-04-15T08:17:19;7;6;
64114;PMS5003;62188;35.640;139.748;2023-04-15T08:19:45;7;7;
64114;PMS5003;62188;35.640;139.748;2023-04-15T08:22:10;8;7;
64114;PMS5003;62188;35.640;139.748;2023-04-15T08:24:35;8;8;
64114;PMS5003;62188;35.640;139.748;2023-04-15T08:27:01;7;7;
64114;PMS5003;62188;35.640;139.748;2023-04-15T08:29:26;6;6;
64114;PMS5003;62188;35.640;139.748;2023-04-15T08:31:53;8;8;
64114;PMS5003;62188;35.640;139.748;2023-04-15T08:34:17;10;10;
64114;PMS5003;62188;35.640;139.748;2023-04-15T08:36:43;12;12;
64114;PMS5003;62188;35.640;139.748;2023-04-15T08:39:09;11;10;
64114;PMS5003;62188;35.640;139.748;2023-04-15T08:41:37;9;9;
64114;PMS5003;62188;35.640;139.748;2023-04-15T08:44:01;10;10;
64114;PMS5003;62188;35.640;139.748;2023-04-15T08:46:26;9;8;
64114;PMS5003;62188;35.640;139.748;2023-04-15T08:48:51;13;12;
64114;PMS5003;62188;35.640;139.748;2023-04-15T08:51:17;11;11;
64114;PMS5003;62188;35.640;139.748;2023-04-15T08:53:43;14;12;
64114;PMS5003;62188;35.640;139.748;2023-04-15T08:56:08;11;11;
64114;PMS5003;62188;35.640;139.748;2023-04-15T08:58:35;13;12;
64114;PMS5003;62188;35.640;139.748;2023-04-15T09:00:59;11;10;
64114;PMS5003;62188;35.640;139.748;2023-04-15T09:03:25;12;12;
64114;PMS5003;62188;35.640;139.748;2023-04-15T09:05:50;12;10;
64114;PMS5003;62188;35.640;139.748;2023-04-15T09:08:15;14;13;
64114;PMS5003;62188;35.640;139.748;2023-04-15T09:10:41;9;9;
64114;PMS5003;62188;35.640;139.748;2023-04-15T09:13:06;13;12;
64114;PMS5003;62188;35.640;139.748;2023-04-15T09:15:32;10;9;
64114;PMS5003;62188;35.640;139.748;2023-04-15T09:17:57;10;10;
64114;PMS5003;62188;35.640;139.748;2023-04-15T09:20:23;11;11;
64114;PMS5003;62188;35.640;139.748;2023-04-15T09:22:49;11;10;
64114;PMS5003;62188;35.640;139.748;2023-04-15T09:30:07;12;11;
64114;PMS5003;62188;35.640;139.748;2023-04-15T09:32:30;10;10;
64114;PMS5003;62188;35.640;139.748;2023-04-15T09:34:56;9;9;
64114;PMS5003;62188;35.640;139.748;2023-04-15T09:39:48;9;9;
64114;PMS5003;62188;35.640;139.748;2023-04-15T09:42:13;10;10;
64114;PMS5003;62188;35.640;139.748;2023-04-15T09:44:38;9;9;
64114;PMS5003;62188;35.640;139.748;2023-04-15T09:47:04;12;11;
64114;PMS5003;62188;35.640;139.748;2023-04-15T09:49:29;7;7;
64114;PMS5003;62188;35.640;139.748;2023-04-15T09:51:57;8;8;
64114;PMS5003;62188;35.640;139.748;2023-04-15T09:54:20;8;8;
64114;PMS5003;62188;35.640;139.748;2023-04-15T09:56:46;7;7;
64114;PMS5003;62188;35.640;139.748;2023-04-15T09:59:12;8;8;
64114;PMS5003;62188;35.640;139.748;2023-04-15T10:01:37;9;9;
64114;PMS5003;62188;35.640;139.748;2023-04-15T10:04:03;9;8;
64114;PMS5003;62188;35.640;139.748;2023-04-15T10:06:28;8;8;
64114;PMS5003;62188;35.640;139.748;2023-04-15T10:08:53;9;9;
64114;PMS5003;62188;35.640;139.748;2023-04-15T10:11:19;11;11;
64114;PMS5003;62188;35.640;139.748;2023-04-15T10:13:44;10;10;
64114;PMS5003;62188;35.640;139.748;2023-04-15T10:16:11;10;10;
64114;PMS5003;62188;35.640;139.748;2023-04-15T10:18:37;10;10;
64114;PMS5003;62188;35.640;139.748;2023-04-15T10:21:01;11;11;
64114;PMS5003;62188;35.640;139.748;2023-04-15T10:23:27;9;7;
64114;PMS5003;62188;35.640;139.748;2023-04-15T10:25:52;8;8;
64114;PMS5003;62188;35.640;139.748;2023-04-15T10:28:18;8;7;
64114;PMS5003;62188;35.640;139.748;2023-04-15T10:30:43;7;7;
64114;PMS5003;62188;35.640;139.748;2023-04-15T10:33:09;9;8;
64114;PMS5003;62188;35.640;139.748;2023-04-15T10:35:34;10;8;
64114;PMS5003;62188;35.640;139.748;2023-04-15T10:38:00;12;11;
64114;PMS5003;62188;35.640;139.748;2023-04-15T10:40:27;10;9;
64114;PMS5003;62188;35.640;139.748;2023-04-15T10:42:51;11;11;
64114;PMS5003;62188;35.640;139.748;2023-04-15T10:45:17;10;10;
64114;PMS5003;62188;35.640;139.748;2023-04-15T10:47:42;10;9;
64114;PMS5003;62188;35.640;139.748;2023-04-15T10:50:08;9;9;
64114;PMS5003;62188;35.640;139.748;2023-04-15T10:52:33;10;9;
64114;PMS5003;62188;35.640;139.748;2023-04-15T10:55:04;11;9;
64114;PMS5003;62188;35.640;139.748;2023-04-15T10:57:26;7;7;
64114;PMS5003;62188;35.640;139.748;2023-04-15T11:02:15;8;8;
64114;PMS5003;62188;35.640;139.748;2023-04-15T11:07:07;10;10;
64114;PMS5003;62188;35.640;139.748;2023-04-15T11:09:32;7;7;
64114;PMS5003;62188;35.640;139.748;2023-04-15T11:12:05;9;9;
64114;PMS5003;62188;35.640;139.748;2023-04-15T11:14:23;9;9;
64114;PMS5003;62188;35.640;139.748;2023-04-15T11:16:48;8;8;
64114;PMS5003;62188;35.640;139.748;2023-04-15T11:19:14;8;8;
64114;PMS5003;62188;35.640;139.748;2023-04-15T11:21:40;7;7;
64114;PMS5003;62188;35.640;139.748;2023-04-15T11:24:05;6;4;
64114;PMS5003;62188;35.640;139.748;2023-04-15T11:26:31;6;6;
64114;PMS5003;62188;35.640;139.748;2023-04-15T11:28:56;7;7;
64114;PMS5003;62188;35.640;139.748;2023-04-15T11:31:22;5;4;
64114;PMS5003;62188;35.640;139.748;2023-04-15T11:36:13;7;7;
64114;PMS5003;62188;35.640;139.748;2023-04-15T11:38:41;7;7;
64114;PMS5003;62188;35.640;139.748;2023-04-15T11:41:04;6;6;
64114;PMS5003;62188;35.640;139.748;2023-04-15T11:43:31;7;7;
64114;PMS5003;62188;35.640;139.748;2023-04-15T11:45:55;9;9;
64114;PMS5003;62188;35.640;139.748;2023-04-15T11:48:21;9;9;
64114;PMS5003;62188;35.640;139.748;2023-04-15T11:50:50;10;9;
64114;PMS5003;62188;35.640;139.748;2023-04-15T11:53:12;8;8;
64114;PMS5003;62188;35.640;139.748;2023-04-15T11:55:42;9;9;
64114;PMS5003;62188;35.640;139.748;2023-04-15T11:58:08;10;10;
64114;PMS5003;62188;35.640;139.748;2023-04-15T12:00:28;10;10;
64114;PMS5003;62188;35.640;139.748;2023-04-15T12:05:19;9;9;
64114;PMS5003;62188;35.640;139.748;2023-04-15T12:10:11;8;8;
64114;PMS5003;62188;35.640;139.748;2023-04-15T12:12:36;12;12;
64114;PMS5003;62188;35.640;139.748;2023-04-15T12:15:02;11;9;
64114;PMS5003;62188;35.640;139.748;2023-04-15T12:17:27;10;10;
64114;PMS5003;62188;35.640;139.748;2023-04-15T12:19:55;8;8;
64114;PMS5003;62188;35.640;139.748;2023-04-15T12:22:19;8;8;
64114;PMS5003;62188;35.640;139.748;2023-04-15T12:24:44;6;6;
64114;PMS5003;62188;35.640;139.748;2023-04-15T12:27:10;8;8;
64114;PMS5003;62188;35.640;139.748;2023-04-15T12:29:36;6;6;
64114;PMS5003;62188;35.640;139.748;2023-04-15T12:32:03;8;8;
64114;PMS5003;62188;35.640;139.748;2023-04-15T12:34:27;8;8;
64114;PMS5003;62188;35.640;139.748;2023-04-15T12:36:52;7;6;
64114;PMS5003;62188;35.640;139.748;2023-04-15T12:39:17;7;7;
64114;PMS5003;62188;35.640;139.748;2023-04-15T12:41:43;7;6;
64114;PMS5003;62188;35.640;139.748;2023-04-15T12:44:08;5;4;
64114;PMS5003;62188;35.640;139.748;2023-04-15T12:46:34;6;6;
64114;PMS5003;62188;35.640;139.748;2023-04-15T12:48:59;7;6;
64114;PMS5003;62188;35.640;139.748;2023-04-15T12:51:25;8;8;
64114;PMS5003;62188;35.640;139.748;2023-04-15T12:53:50;7;6;
64114;PMS5003;62188;35.640;139.748;2023-04-15T12:56:16;6;6;
64114;PMS5003;62188;35.640;139.748;2023-04-15T12:58:41;6;6;
64114;PMS5003;62188;35.640;139.748;2023-04-15T13:01:07;5;5;
64114;PMS5003;62188;35.640;139.748;2023-04-15T13:03:32;5;5;
64114;PMS5003;62188;35.640;139.748;2023-04-15T13:05:58;8;8;
64114;PMS5003;62188;35.640;139.748;2023-04-15T13:08:23;7;7;
64114;PMS5003;62188;35.640;139.748;2023-04-15T13:10:49;6;6;
64114;PMS5003;62188;35.640;139.748;2023-04-15T13:13:15;6;6;
64114;PMS5003;62188;35.640;139.748;2023-04-15T13:15:40;8;7;
64114;PMS5003;62188;35.640;139.748;2023-04-15T13:18:06;5;5;
64114;PMS5003;62188;35.640;139.748;2023-04-15T13:20:31;8;8;
64114;PMS5003;62188;35.640;139.748;2023-04-15T13:22:57;8;7;
64114;PMS5003;62188;35.640;139.748;2023-04-15T13:25:22;8;8;
64114;PMS5003;62188;35.640;139.748;2023-04-15T13:27:48;7;7;
64114;PMS5003;62188;35.640;139.748;2023-04-15T13:30:13;5;5;
64114;PMS5003;62188;35.640;139.748;2023-04-15T13:32:39;7;7;
64114;PMS5003;62188;35.640;139.748;2023-04-15T13:35:04;6;6;
64114;PMS5003;62188;35.640;139.748;2023-04-15T13:37:30;7;6;
64114;PMS5003;62188;35.640;139.748;2023-04-15T13:39:56;6;6;
64114;PMS5003;62188;35.640;139.748;2023-04-15T13:42:21;6;6;
64114;PMS5003;62188;35.640;139.748;2023-04-15T13:44:48;7;7;
64114;PMS5003;62188;35.640;139.748;2023-04-15T13:47:13;9;9;
64114;PMS5003;62188;35.640;139.748;2023-04-15T13:49:38;8;8;
64114;PMS5003;62188;35.640;139.748;2023-04-15T13:52:03;7;7;
64114;PMS5003;62188;35.640;139.748;2023-04-15T13:54:29;7;7;
64114;PMS5003;62188;35.640;139.748;2023-04-15T13:56:54;6;6;
64114;PMS5003;62188;35.640;139.748;2023-04-15T13:59:20;6;6;
64114;PMS5003;62188;35.640;139.748;2023-04-15T14:01:45;4;4;
64114;PMS5003;62188;35.640;139.748;2023-04-15T14:04:12;6;6;
64114;PMS5003;62188;35.640;139.748;2023-04-15T14:06:37;5;5;
64114;PMS5003;62188;35.640;139.748;2023-04-15T14:09:02;5;5;
64114;PMS5003;62188;35.640;139.748;2023-04-15T14:11:28;5;5;
64114;PMS5003;62188;35.640;139.748;2023-04-15T14:13:53;4;4;
64114;PMS5003;62188;35.640;139.748;2023-04-15T14:16:19;5;5;
64114;PMS5003;62188;35.640;139.748;2023-04-15T14:18:44;4;4;
64114;PMS5003;62188;35.640;139.748;2023-04-15T14:21:10;5;5;
64114;PMS5003;62188;35.640;139.748;2023-04-15T14:23:36;4;4;
64114;PMS5003;62188;35.640;139.748;2023-04-15T14:26:01;4;4;
64114;PMS5003;62188;35.640;139.748;2023-04-15T14:28:26;6;6;
64114;PMS5003;62188;35.640;139.748;2023-04-15T14:30:52;5;5;
64114;PMS5003;62188;35.640;139.748;2023-04-15T14:33:17;5;5;
64114;PMS5003;62188;35.640;139.748;2023-04-15T14:35:43;5;5;
64114;PMS5003;62188;35.640;139.748;2023-04-15T14:38:09;5;5;
64114;PMS5003;62188;35.640;139.748;2023-04-15T14:40:34;6;5;
64114;PMS5003;62188;35.640;139.748;2023-04-15T14:43:00;5;5;
64114;PMS5003;62188;35.640;139.748;2023-04-15T14:45:25;6;5;
64114;PMS5003;62188;35.640;139.748;2023-04-15T14:47:51;6;6;
64114;PMS5003;62188;35.640;139.748;2023-04-15T14:50:16;7;7;
64114;PMS5003;62188;35.640;139.748;2023-04-15T14:52:42;5;5;
64114;PMS5003;62188;35.640;139.748;2023-04-15T14:55:08;7;6;
64114;PMS5003;62188;35.640;139.748;2023-04-15T14:57:33;6;6;
64114;PMS5003;62188;35.640;139.748;2023-04-15T14:59:58;6;6;
64114;PMS5003;62188;35.640;139.748;2023-04-15T15:02:24;5;5;
64114;PMS5003;62188;35.640;139.748;2023-04-15T15:04:50;4;4;
64114;PMS5003;62188;35.640;139.748;2023-04-15T15:07:15;6;6;
64114;PMS5003;62188;35.640;139.748;2023-04-15T15:09:40;6;6;
64114;PMS5003;62188;35.640;139.748;2023-04-15T15:12:06;6;6;
64114;PMS5003;62188;35.640;139.748;2023-04-15T15:14:32;5;5;
64114;PMS5003;62188;35.640;139.748;2023-04-15T15:16:57;5;5;
64114;PMS5003;62188;35.640;139.748;2023-04-15T15:19:23;5;5;
64114;PMS5003;62188;35.640;139.748;2023-04-15T15:21:48;5;5;
64114;PMS5003;62188;35.640;139.748;2023-04-15T15:24:14;5;5;
64114;PMS5003;62188;35.640;139.748;2023-04-15T15:26:39;6;6;
64114;PMS5003;62188;35.640;139.748;2023-04-15T15:29:05;6;6;
64114;PMS5003;62188;35.640;139.748;2023-04-15T15:31:32;6;6;
64114;PMS5003;62188;35.640;139.748;2023-04-15T15:33:56;7;6;
64114;PMS5003;62188;35.640;139.748;2023-04-15T15:36:21;7;7;
64114;PMS5003;62188;35.640;139.748;2023-04-15T15:38:47;6;6;
64114;PMS5003;62188;35.640;139.748;2023-04-15T15:41:13;8;7;
64114;PMS5003;62188;35.640;139.748;2023-04-15T15:43:38;7;7;
64114;PMS5003;62188;35.640;139.748;2023-04-15T15:46:03;6;6;
64114;PMS5003;62188;35.640;139.748;2023-04-15T15:48:29;6;6;
64114;PMS5003;62188;35.640;139.748;2023-04-15T15:50:54;6;6;
64114;PMS5003;62188;35.640;139.748;2023-04-15T15:53:20;7;7;
64114;PMS5003;62188;35.640;139.748;2023-04-15T15:55:46;6;6;
64114;PMS5003;62188;35.640;139.748;2023-04-15T15:58:11;7;7;
64114;PMS5003;62188;35.640;139.748;2023-04-15T16:00:36;8;8;
64114;PMS5003;62188;35.640;139.748;2023-04-15T16:03:02;5;5;
64114;PMS5003;62188;35.640;139.748;2023-04-15T16:05:27;8;8;
64114;PMS5003;62188;35.640;139.748;2023-04-15T16:07:53;6;6;
64114;PMS5003;62188;35.640;139.748;2023-04-15T16:10:18;7;7;